Map

Track Data

SID SEASON NUMBER BASIN SUBBASIN NAME ISO_TIME NATURE LAT LON WMO_WIND WMO_PRES WMO_AGENCY TRACK_TYPE DIST2LAND LANDFALL IFLAG USA_AGENCY USA_ATCF_ID USA_LAT USA_LON USA_RECORD USA_STATUS USA_WIND USA_PRES USA_SSHS USA_R34_NE USA_R34_SE USA_R34_SW USA_R34_NW USA_R50_NE USA_R50_SE USA_R50_SW USA_R50_NW USA_R64_NE USA_R64_SE USA_R64_SW USA_R64_NW USA_POCI USA_ROCI USA_RMW USA_EYE TOKYO_LAT TOKYO_LON TOKYO_GRADE TOKYO_WIND TOKYO_PRES TOKYO_R50_DIR TOKYO_R50_LONG TOKYO_R50_SHORT TOKYO_R30_DIR TOKYO_R30_LONG TOKYO_R30_SHORT TOKYO_LAND CMA_LAT CMA_LON CMA_CAT CMA_WIND CMA_PRES HKO_LAT HKO_LON HKO_CAT HKO_WIND HKO_PRES NEWDELHI_LAT NEWDELHI_LON NEWDELHI_GRADE NEWDELHI_WIND NEWDELHI_PRES NEWDELHI_CI NEWDELHI_DP NEWDELHI_POCI REUNION_LAT REUNION_LON REUNION_TYPE REUNION_WIND REUNION_PRES REUNION_TNUM REUNION_CI REUNION_RMW REUNION_R34_NE REUNION_R34_SE REUNION_R34_SW REUNION_R34_NW REUNION_R50_NE REUNION_R50_SE REUNION_R50_SW REUNION_R50_NW REUNION_R64_NE REUNION_R64_SE REUNION_R64_SW REUNION_R64_NW BOM_LAT BOM_LON BOM_TYPE BOM_WIND BOM_PRES BOM_TNUM BOM_CI BOM_RMW BOM_R34_NE BOM_R34_SE BOM_R34_SW BOM_R34_NW BOM_R50_NE BOM_R50_SE BOM_R50_SW BOM_R50_NW BOM_R64_NE BOM_R64_SE BOM_R64_SW BOM_R64_NW BOM_ROCI BOM_POCI BOM_EYE BOM_POS_METHOD BOM_PRES_METHOD NADI_LAT NADI_LON NADI_CAT NADI_WIND NADI_PRES WELLINGTON_LAT WELLINGTON_LON WELLINGTON_WIND WELLINGTON_PRES DS824_LAT DS824_LON DS824_STAGE DS824_WIND DS824_PRES TD9636_LAT TD9636_LON TD9636_STAGE TD9636_WIND TD9636_PRES TD9635_LAT TD9635_LON TD9635_WIND TD9635_PRES TD9635_ROCI NEUMANN_LAT NEUMANN_LON NEUMANN_CLASS NEUMANN_WIND NEUMANN_PRES MLC_LAT MLC_LON MLC_CLASS MLC_WIND MLC_PRES USA_GUST BOM_GUST BOM_GUST_PER REUNION_GUST REUNION_GUST_PER USA_SEAHGT USA_SEARAD_NE USA_SEARAD_SE USA_SEARAD_SW USA_SEARAD_NW STORM_SPEED STORM_DIR
1956164N20269 1956 49 NA GM NOT_NAMED 1956-06-12 00:00:00 TS 20.0000 -91.5000 25 hurdat_atl main 90 90 O_____________ hurdat_atl AL011956 20.0000 -91.5000 TD 25 -1 3 0
1956164N20269 1956 49 NA GM NOT_NAMED 1956-06-12 03:00:00 TS 20.1375 -91.5000 main 94 94 P_____________ AL011956 20.1375 -91.5000 TD 25 -1 3 0
1956164N20269 1956 49 NA GM NOT_NAMED 1956-06-12 06:00:00 TS 20.3000 -91.5000 25 hurdat_atl main 104 104 O_____________ hurdat_atl AL011956 20.3000 -91.5000 TD 25 -1 4 2
1956164N20269 1956 49 NA GM NOT_NAMED 1956-06-12 09:00:00 TS 20.5125 -91.5000 main 104 104 P_____________ AL011956 20.5125 -91.5000 TD 27 -1 5 2
1956164N20269 1956 49 NA GM NOT_NAMED 1956-06-12 12:00:00 TS 20.8000 -91.5000 30 hurdat_atl main 109 109 O_____________ hurdat_atl AL011956 20.8000 -91.5000 TD 30 -1 6 2
1956164N20269 1956 49 NA GM NOT_NAMED 1956-06-12 15:00:00 TS 21.1325 -91.5000 main 119 119 P_____________ AL011956 21.1325 -91.5000 TD 32 -1 8 1
1956164N20269 1956 49 NA GM NOT_NAMED 1956-06-12 18:00:00 TS 21.6000 -91.5000 35 hurdat_atl main 136 136 O_____________ hurdat_atl AL011956 21.6000 -91.5000 TS 35 0 11 0
1956164N20269 1956 49 NA GM NOT_NAMED 1956-06-12 21:00:00 TS 22.2026 -91.5147 main 174 174 P_____________ AL011956 22.2026 -91.5147 TS 37 0 14 0
1956164N20269 1956 49 NA GM NOT_NAMED 1956-06-13 00:00:00 TS 23.0000 -91.5000 40 hurdat_atl main 245 245 O_____________ hurdat_atl AL011956 23.0000 -91.5000 TS 40 0 18 3
1956164N20269 1956 49 NA GM NOT_NAMED 1956-06-13 03:00:00 TS 23.9751 -91.4297 main 343 343 P_____________ AL011956 23.9751 -91.4297 TS 42 0 21 5
1956164N20269 1956 49 NA GM NOT_NAMED 1956-06-13 06:00:00 TS 25.1000 -91.3000 45 hurdat_atl main 448 313 O_____________ hurdat_atl AL011956 25.1000 -91.3000 TS 45 0 24 7
1956164N20269 1956 49 NA GM NOT_NAMED 1956-06-13 09:00:00 TS 26.3176 -91.1021 main 313 189 P_____________ AL011956 26.3176 -91.1021 TS 47 0 24 9
1956164N20269 1956 49 NA GM NOT_NAMED 1956-06-13 12:00:00 TS 27.5000 -90.9000 50 1004 hurdat_atl main 178 78 O_____________ hurdat_atl AL011956 27.5000 -90.9000 TS 50 1004 0 22 7
1956164N20269 1956 49 NA GM NOT_NAMED 1956-06-13 15:00:00 TS 28.4917 -90.8159 main 67 9 P_____________ AL011956 28.4917 -90.8159 TS 50 1003 0 19 6
1956164N20269 1956 49 NA GM NOT_NAMED 1956-06-13 17:00:00 TS 29.1000 -90.7000 50 hurdat_atl main 9 0 I_____________ hurdat_atl AL011956 29.1000 -90.7000 L TS 50 1002 0 19 12
1956164N20269 1956 49 NA NA NOT_NAMED 1956-06-13 18:00:00 TS 29.4000 -90.6000 50 hurdat_atl main 0 0 I_____________ hurdat_atl AL011956 29.4000 -90.6000 TS 50 1002 0 17 9
1956164N20269 1956 49 NA NA NOT_NAMED 1956-06-13 21:00:00 TS 30.2389 -90.4946 main 0 0 P_____________ AL011956 30.2389 -90.4946 TS 42 1001 0 16 0
1956164N20269 1956 49 NA NA NOT_NAMED 1956-06-14 00:00:00 TS 31.0000 -90.6000 35 1001 hurdat_atl main 0 0 O_____________ hurdat_atl AL011956 31.0000 -90.6000 TS 35 1001 0 15 352
1956164N20269 1956 49 NA NA NOT_NAMED 1956-06-14 03:00:00 TS 31.7149 -90.7477 main 0 0 P_____________ AL011956 31.7149 -90.7477 TS 32 1002 -1 14 346
1956164N20269 1956 49 NA NA NOT_NAMED 1956-06-14 06:00:00 TS 32.4000 -91.0000 30 hurdat_atl main 0 0 I_____________ hurdat_atl AL011956 32.4000 -91.0000 TD 30 1003 -1 15 342
1956164N20269 1956 49 NA NA NOT_NAMED 1956-06-14 09:00:00 TS 33.1522 -91.2973 main 0 0 P_____________ AL011956 33.1522 -91.2973 TD 27 1004 -1 15 337
1956164N20269 1956 49 NA NA NOT_NAMED 1956-06-14 12:00:00 TS 33.8000 -91.7000 25 1006 hurdat_atl main 0 0 O_____________ hurdat_atl AL011956 33.8000 -91.7000 TD 25 1006 -1 13 323
1956164N20269 1956 49 NA NA NOT_NAMED 1956-06-14 15:00:00 TS 34.2256 -92.2650 main 0 0 P_____________ AL011956 34.2256 -92.2650 TD 25 -1 11 308
1956164N20269 1956 49 NA NA NOT_NAMED 1956-06-14 18:00:00 TS 34.5000 -92.8000 25 hurdat_atl main 0 0 O_____________ hurdat_atl AL011956 34.5000 -92.8000 TD 25 -1 9 306
1956164N20269 1956 49 NA NA NOT_NAMED 1956-06-14 21:00:00 TS 34.7295 -93.0957 main 0 0 P_____________ AL011956 34.7295 -93.0957 TD 25 -1 6 314
1956164N20269 1956 49 NA NA NOT_NAMED 1956-06-15 00:00:00 TS 34.9000 -93.3000 25 hurdat_atl main 0 0 O_____________ hurdat_atl AL011956 34.9000 -93.3000 TD 25 -1 5 312
1956164N20269 1956 49 NA NA NOT_NAMED 1956-06-15 03:00:00 TS 35.0528 -93.5346 main 0 0 P_____________ AL011956 35.0528 -93.5346 TD 22 -1 5 306
1956164N20269 1956 49 NA NA NOT_NAMED 1956-06-15 06:00:00 TS 35.2000 -93.8000 20 hurdat_atl main 0 O_____________ hurdat_atl AL011956 35.2000 -93.8000 TD 20 -1 5 304

About IBTrACS Database

This database is a web-friendly format of International Best Track Archive for Climate Stewardship (IBTrACS), a global best track data archive curated by NOAA dating back to 1842.

Updated: 2021-12-06